LFRN/RNS METAR and TAF weather

Enter ICAO airport designator
Station Type Date Time Source
LFRN METAR 2019/04/25 17:30 UTC NOAA

LFRN 251730Z AUTO 21010KT 180V240 9999 FEW044 14/06 Q1004 TEMPO SHRA SCT020CB BKN030


Station Type Date Time Source
LFRN Decoded METAR 2019/04/25 17:30 UTC NOAA

Rennes, France (LFRN) 48-04N 001-44W 37M
Apr 25, 2019 - 01:30 PM EDT / 2019.04.25 1730 UTC
Wind: from the SSW (210 degrees) at 12 MPH (10 KT) (direction variable):0
Visibility: greater than 7 mile(s):0
Sky conditions: mostly clear
Weather: Cumulonimbus clouds observed
Temperature: 57 F (14 C)
Dew Point: 42 F (6 C)
Relative Humidity: 58%
Pressure (altimeter): 29.65 in. Hg (1004 hPa)
ob: LFRN 251730Z AUTO 21010KT 180V240 9999 FEW044 14/06 Q1004 TEMPO SHRA SCT020CB BKN030
cycle: 17

Station Type Date Time Source
LFRN TAF 2019/04/25 18:21 UTC NOAA

TAF LFRN 251700Z 2518/2618 20012KT 9999 SCT030
TEMPO 2518/2604 5000 SHRA SCT020CB BKN030
BECMG 2519/2522 VRB05KT PROB40
TEMPO 2604/2608 BKN008
TEMPO 2611/2617 5000 SHRA BKN020TCU
BECMG 2612/2614 27010KT PROB30
TEMPO 2611/2617 26015G25KT

Example: see airport list